sensor_id;sensor_type;location;lat;lon;timestamp;P1;durP1;ratioP1;P2;durP2;ratioP2
23768;SDS011;12064;50.890;5.424;2023-12-04T00:00:21;1.60;;;1.50;;
23768;SDS011;12064;50.890;5.424;2023-12-04T00:09:12;1.50;;;1.40;;
23768;SDS011;12064;50.890;5.424;2023-12-04T00:18:03;1.97;;;1.47;;
23768;SDS011;12064;50.890;5.424;2023-12-04T00:26:53;1.70;;;1.60;;
23768;SDS011;12064;50.890;5.424;2023-12-04T00:35:44;1.42;;;1.33;;
23768;SDS011;12064;50.890;5.424;2023-12-04T00:44:35;1.97;;;1.60;;
23768;SDS011;12064;50.890;5.424;2023-12-04T00:53:26;1.50;;;1.40;;
23768;SDS011;12064;50.890;5.424;2023-12-04T01:02:16;1.63;;;1.52;;
23768;SDS011;12064;50.890;5.424;2023-12-04T01:11:07;1.42;;;1.30;;
23768;SDS011;12064;50.890;5.424;2023-12-04T01:19:59;1.60;;;1.50;;
23768;SDS011;12064;50.890;5.424;2023-12-04T01:28:52;1.48;;;1.38;;
23768;SDS011;12064;50.890;5.424;2023-12-04T01:37:43;1.50;;;1.40;;
23768;SDS011;12064;50.890;5.424;2023-12-04T01:46:33;1.77;;;1.27;;
23768;SDS011;12064;50.890;5.424;2023-12-04T01:55:24;1.35;;;1.25;;
23768;SDS011;12064;50.890;5.424;2023-12-04T02:04:15;1.60;;;1.42;;
23768;SDS011;12064;50.890;5.424;2023-12-04T02:13:07;1.58;;;1.40;;
23768;SDS011;12064;50.890;5.424;2023-12-04T02:22:00;1.90;;;1.20;;
23768;SDS011;12064;50.890;5.424;2023-12-04T02:30:51;1.75;;;1.30;;
23768;SDS011;12064;50.890;5.424;2023-12-04T02:39:42;1.60;;;1.40;;
23768;SDS011;12064;50.890;5.424;2023-12-04T02:48:36;1.90;;;1.42;;
23768;SDS011;12064;50.890;5.424;2023-12-04T02:57:26;1.15;;;1.05;;
23768;SDS011;12064;50.890;5.424;2023-12-04T03:06:20;1.33;;;1.23;;
23768;SDS011;12064;50.890;5.424;2023-12-04T03:15:13;1.40;;;1.30;;
23768;SDS011;12064;50.890;5.424;2023-12-04T03:24:05;1.75;;;1.10;;
23768;SDS011;12064;50.890;5.424;2023-12-04T03:32:56;1.30;;;1.20;;
23768;SDS011;12064;50.890;5.424;2023-12-04T03:41:48;1.53;;;1.43;;
23768;SDS011;12064;50.890;5.424;2023-12-04T03:50:38;1.30;;;1.20;;
23768;SDS011;12064;50.890;5.424;2023-12-04T03:59:29;1.30;;;1.20;;
23768;SDS011;12064;50.890;5.424;2023-12-04T04:08:20;1.43;;;1.30;;
23768;SDS011;12064;50.890;5.424;2023-12-04T04:17:10;1.30;;;1.20;;
23768;SDS011;12064;50.890;5.424;2023-12-04T04:26:01;1.13;;;1.03;;
23768;SDS011;12064;50.890;5.424;2023-12-04T04:34:52;1.27;;;1.27;;
23768;SDS011;12064;50.890;5.424;2023-12-04T04:43:44;1.30;;;1.20;;
23768;SDS011;12064;50.890;5.424;2023-12-04T04:52:34;2.28;;;1.10;;
23768;SDS011;12064;50.890;5.424;2023-12-04T05:01:28;1.20;;;1.10;;
23768;SDS011;12064;50.890;5.424;2023-12-04T05:10:19;1.20;;;1.10;;
23768;SDS011;12064;50.890;5.424;2023-12-04T05:19:09;1.17;;;1.07;;
23768;SDS011;12064;50.890;5.424;2023-12-04T05:28:00;1.20;;;1.10;;
23768;SDS011;12064;50.890;5.424;2023-12-04T05:36:51;2.50;;;1.13;;
23768;SDS011;12064;50.890;5.424;2023-12-04T05:45:42;1.10;;;1.10;;
23768;SDS011;12064;50.890;5.424;2023-12-04T05:54:33;2.05;;;1.20;;
23768;SDS011;12064;50.890;5.424;2023-12-04T06:03:23;1.20;;;1.10;;
23768;SDS011;12064;50.890;5.424;2023-12-04T06:12:14;1.20;;;1.10;;
23768;SDS011;12064;50.890;5.424;2023-12-04T06:21:05;1.13;;;1.03;;
23768;SDS011;12064;50.890;5.424;2023-12-04T06:29:56;1.80;;;1.10;;
23768;SDS011;12064;50.890;5.424;2023-12-04T06:38:47;1.20;;;1.10;;
23768;SDS011;12064;50.890;5.424;2023-12-04T06:47:42;1.40;;;1.10;;
23768;SDS011;12064;50.890;5.424;2023-12-04T06:56:36;2.15;;;1.08;;
23768;SDS011;12064;50.890;5.424;2023-12-04T07:05:27;1.73;;;1.35;;
23768;SDS011;12064;50.890;5.424;2023-12-04T07:14:18;1.50;;;1.40;;
23768;SDS011;12064;50.890;5.424;2023-12-04T07:23:09;1.37;;;1.17;;
23768;SDS011;12064;50.890;5.424;2023-12-04T07:32:02;1.20;;;1.10;;
23768;SDS011;12064;50.890;5.424;2023-12-04T07:40:56;1.50;;;1.10;;
23768;SDS011;12064;50.890;5.424;2023-12-04T07:49:47;1.08;;;1.00;;
23768;SDS011;12064;50.890;5.424;2023-12-04T07:58:37;2.00;;;1.30;;
23768;SDS011;12064;50.890;5.424;2023-12-04T08:07:28;1.20;;;1.10;;
23768;SDS011;12064;50.890;5.424;2023-12-04T08:16:19;1.33;;;1.20;;
23768;SDS011;12064;50.890;5.424;2023-12-04T08:25:10;1.20;;;1.08;;
23768;SDS011;12064;50.890;5.424;2023-12-04T08:34:04;1.20;;;1.10;;
23768;SDS011;12064;50.890;5.424;2023-12-04T08:42:57;1.20;;;1.10;;
23768;SDS011;12064;50.890;5.424;2023-12-04T08:51:51;3.03;;;1.40;;
23768;SDS011;12064;50.890;5.424;2023-12-04T09:00:42;1.92;;;1.15;;
23768;SDS011;12064;50.890;5.424;2023-12-04T09:09:33;2.70;;;1.17;;
23768;SDS011;12064;50.890;5.424;2023-12-04T09:18:24;1.67;;;1.33;;
23768;SDS011;12064;50.890;5.424;2023-12-04T09:27:15;1.45;;;1.20;;
23768;SDS011;12064;50.890;5.424;2023-12-04T09:36:07;2.28;;;1.30;;
23768;SDS011;12064;50.890;5.424;2023-12-04T09:45:00;2.35;;;1.42;;
23768;SDS011;12064;50.890;5.424;2023-12-04T09:53:57;1.35;;;1.08;;
23768;SDS011;12064;50.890;5.424;2023-12-04T10:02:51;1.92;;;1.40;;
23768;SDS011;12064;50.890;5.424;2023-12-04T10:11:46;1.30;;;1.20;;
23768;SDS011;12064;50.890;5.424;2023-12-04T10:20:37;1.35;;;1.25;;
23768;SDS011;12064;50.890;5.424;2023-12-04T10:29:44;2.00;;;1.40;;
23768;SDS011;12064;50.890;5.424;2023-12-04T10:38:37;2.08;;;1.20;;
23768;SDS011;12064;50.890;5.424;2023-12-04T10:47:28;1.45;;;1.20;;
23768;SDS011;12064;50.890;5.424;2023-12-04T10:56:27;1.23;;;1.08;;
23768;SDS011;12064;50.890;5.424;2023-12-04T11:05:30;1.63;;;1.30;;
23768;SDS011;12064;50.890;5.424;2023-12-04T11:14:23;1.45;;;1.30;;
23768;SDS011;12064;50.890;5.424;2023-12-04T11:23:20;1.30;;;1.00;;
23768;SDS011;12064;50.890;5.424;2023-12-04T11:32:14;1.08;;;0.98;;
23768;SDS011;12064;50.890;5.424;2023-12-04T11:41:22;2.60;;;1.10;;
23768;SDS011;12064;50.890;5.424;2023-12-04T11:50:20;1.97;;;1.00;;
23768;SDS011;12064;50.890;5.424;2023-12-04T11:59:11;1.38;;;1.10;;
23768;SDS011;12064;50.890;5.424;2023-12-04T12:08:02;1.42;;;0.95;;
23768;SDS011;12064;50.890;5.424;2023-12-04T12:17:00;2.10;;;1.23;;
23768;SDS011;12064;50.890;5.424;2023-12-04T12:25:51;2.57;;;0.83;;
23768;SDS011;12064;50.890;5.424;2023-12-04T12:34:42;1.23;;;1.00;;
23768;SDS011;12064;50.890;5.424;2023-12-04T12:43:35;1.10;;;1.08;;
23768;SDS011;12064;50.890;5.424;2023-12-04T12:52:27;1.33;;;1.23;;
23768;SDS011;12064;50.890;5.424;2023-12-04T13:01:23;1.13;;;1.00;;
23768;SDS011;12064;50.890;5.424;2023-12-04T13:10:15;1.15;;;1.05;;
23768;SDS011;12064;50.890;5.424;2023-12-04T13:19:08;1.00;;;0.90;;
23768;SDS011;12064;50.890;5.424;2023-12-04T13:28:01;1.02;;;0.93;;
23768;SDS011;12064;50.890;5.424;2023-12-04T13:36:52;0.85;;;0.85;;
23768;SDS011;12064;50.890;5.424;2023-12-04T13:45:46;1.77;;;1.00;;
23768;SDS011;12064;50.890;5.424;2023-12-04T13:54:36;0.90;;;0.90;;
23768;SDS011;12064;50.890;5.424;2023-12-04T14:03:39;1.05;;;1.00;;
23768;SDS011;12064;50.890;5.424;2023-12-04T14:12:32;0.90;;;0.90;;
23768;SDS011;12064;50.890;5.424;2023-12-04T14:21:22;1.33;;;0.70;;
23768;SDS011;12064;50.890;5.424;2023-12-04T14:30:13;0.90;;;0.90;;
23768;SDS011;12064;50.890;5.424;2023-12-04T14:39:06;1.00;;;1.00;;
23768;SDS011;12064;50.890;5.424;2023-12-04T14:48:02;1.02;;;0.93;;
23768;SDS011;12064;50.890;5.424;2023-12-04T14:56:56;0.80;;;0.80;;
23768;SDS011;12064;50.890;5.424;2023-12-04T15:06:10;2.20;;;0.90;;
23768;SDS011;12064;50.890;5.424;2023-12-04T15:15:03;1.15;;;1.00;;
23768;SDS011;12064;50.890;5.424;2023-12-04T15:24:13;2.35;;;0.90;;
23768;SDS011;12064;50.890;5.424;2023-12-04T15:33:03;1.52;;;0.80;;
23768;SDS011;12064;50.890;5.424;2023-12-04T15:41:54;1.37;;;1.00;;
23768;SDS011;12064;50.890;5.424;2023-12-04T15:50:47;0.90;;;0.80;;
23768;SDS011;12064;50.890;5.424;2023-12-04T15:59:38;0.83;;;0.83;;
23768;SDS011;12064;50.890;5.424;2023-12-04T16:08:29;1.95;;;0.80;;
23768;SDS011;12064;50.890;5.424;2023-12-04T16:17:20;1.23;;;0.90;;
23768;SDS011;12064;50.890;5.424;2023-12-04T16:26:10;1.60;;;1.00;;
23768;SDS011;12064;50.890;5.424;2023-12-04T16:35:01;1.80;;;0.90;;
23768;SDS011;12064;50.890;5.424;2023-12-04T16:43:54;1.45;;;1.17;;
23768;SDS011;12064;50.890;5.424;2023-12-04T16:52:45;1.52;;;1.00;;
23768;SDS011;12064;50.890;5.424;2023-12-04T17:01:36;1.93;;;0.97;;
23768;SDS011;12064;50.890;5.424;2023-12-04T17:10:26;2.17;;;0.93;;
23768;SDS011;12064;50.890;5.424;2023-12-04T17:19:18;0.80;;;0.80;;
23768;SDS011;12064;50.890;5.424;2023-12-04T17:28:09;0.93;;;0.73;;
23768;SDS011;12064;50.890;5.424;2023-12-04T17:37:01;1.00;;;0.88;;
23768;SDS011;12064;50.890;5.424;2023-12-04T17:45:52;0.73;;;0.70;;
23768;SDS011;12064;50.890;5.424;2023-12-04T17:54:42;1.20;;;1.00;;
23768;SDS011;12064;50.890;5.424;2023-12-04T18:03:33;0.90;;;0.90;;
23768;SDS011;12064;50.890;5.424;2023-12-04T18:12:25;1.10;;;0.70;;
23768;SDS011;12064;50.890;5.424;2023-12-04T18:21:18;1.08;;;0.93;;
23768;SDS011;12064;50.890;5.424;2023-12-04T18:30:10;0.93;;;0.80;;
23768;SDS011;12064;50.890;5.424;2023-12-04T18:39:03;0.90;;;0.90;;
23768;SDS011;12064;50.890;5.424;2023-12-04T18:47:58;2.47;;;1.17;;
23768;SDS011;12064;50.890;5.424;2023-12-04T18:56:50;1.77;;;0.93;;
23768;SDS011;12064;50.890;5.424;2023-12-04T19:05:41;0.80;;;0.80;;
23768;SDS011;12064;50.890;5.424;2023-12-04T19:14:35;1.00;;;0.80;;
23768;SDS011;12064;50.890;5.424;2023-12-04T19:23:28;1.13;;;0.88;;
23768;SDS011;12064;50.890;5.424;2023-12-04T19:32:21;0.80;;;0.80;;
23768;SDS011;12064;50.890;5.424;2023-12-04T19:41:12;1.02;;;0.93;;
23768;SDS011;12064;50.890;5.424;2023-12-04T19:50:02;0.90;;;0.90;;
23768;SDS011;12064;50.890;5.424;2023-12-04T19:59:01;0.85;;;0.70;;
23768;SDS011;12064;50.890;5.424;2023-12-04T20:07:55;1.23;;;0.90;;
23768;SDS011;12064;50.890;5.424;2023-12-04T20:16:49;0.70;;;0.70;;
23768;SDS011;12064;50.890;5.424;2023-12-04T20:25:41;0.80;;;0.80;;
23768;SDS011;12064;50.890;5.424;2023-12-04T20:34:32;0.73;;;0.73;;
23768;SDS011;12064;50.890;5.424;2023-12-04T20:43:24;1.27;;;0.80;;
23768;SDS011;12064;50.890;5.424;2023-12-04T20:52:19;0.77;;;0.73;;
23768;SDS011;12064;50.890;5.424;2023-12-04T21:01:14;0.75;;;0.75;;
23768;SDS011;12064;50.890;5.424;2023-12-04T21:10:08;0.98;;;0.80;;
23768;SDS011;12064;50.890;5.424;2023-12-04T21:19:02;1.50;;;1.15;;
23768;SDS011;12064;50.890;5.424;2023-12-04T21:27:55;1.15;;;0.90;;
23768;SDS011;12064;50.890;5.424;2023-12-04T21:36:49;2.05;;;0.88;;
23768;SDS011;12064;50.890;5.424;2023-12-04T21:45:39;2.15;;;0.80;;
23768;SDS011;12064;50.890;5.424;2023-12-04T21:54:30;0.80;;;0.80;;
23768;SDS011;12064;50.890;5.424;2023-12-04T22:03:23;0.70;;;0.70;;
23768;SDS011;12064;50.890;5.424;2023-12-04T22:12:14;2.72;;;0.90;;
23768;SDS011;12064;50.890;5.424;2023-12-04T22:21:05;0.83;;;0.80;;
23768;SDS011;12064;50.890;5.424;2023-12-04T22:29:56;2.38;;;0.80;;
23768;SDS011;12064;50.890;5.424;2023-12-04T22:38:47;0.70;;;0.70;;
23768;SDS011;12064;50.890;5.424;2023-12-04T22:47:38;2.00;;;0.93;;
23768;SDS011;12064;50.890;5.424;2023-12-04T22:56:28;1.27;;;0.85;;
23768;SDS011;12064;50.890;5.424;2023-12-04T23:05:19;0.90;;;0.80;;
23768;SDS011;12064;50.890;5.424;2023-12-04T23:14:10;1.70;;;0.73;;
23768;SDS011;12064;50.890;5.424;2023-12-04T23:23:00;0.80;;;0.80;;
23768;SDS011;12064;50.890;5.424;2023-12-04T23:31:51;2.00;;;0.80;;
23768;SDS011;12064;50.890;5.424;2023-12-04T23:40:42;1.00;;;0.70;;
23768;SDS011;12064;50.890;5.424;2023-12-04T23:49:32;1.98;;;0.88;;
23768;SDS011;12064;50.890;5.424;2023-12-04T23:58:23;1.02;;;0.88;;
